sensor_id;sensor_type;location;lat;lon;timestamp;P1;durP1;ratioP1;P2;durP2;ratioP2
23129;SDS011;11734;51.046;13.778;2023-05-10T00:01:45;2.30;;;2.10;;
23129;SDS011;11734;51.046;13.778;2023-05-10T00:04:12;3.97;;;2.17;;
23129;SDS011;11734;51.046;13.778;2023-05-10T00:06:41;2.30;;;2.10;;
23129;SDS011;11734;51.046;13.778;2023-05-10T00:09:08;2.10;;;2.00;;
23129;SDS011;11734;51.046;13.778;2023-05-10T00:11:39;2.33;;;2.13;;
23129;SDS011;11734;51.046;13.778;2023-05-10T00:14:06;2.10;;;1.97;;
23129;SDS011;11734;51.046;13.778;2023-05-10T00:16:33;2.57;;;2.37;;
23129;SDS011;11734;51.046;13.778;2023-05-10T00:19:01;2.40;;;2.20;;
23129;SDS011;11734;51.046;13.778;2023-05-10T00:21:28;3.93;;;2.27;;
23129;SDS011;11734;51.046;13.778;2023-05-10T00:23:55;2.43;;;2.23;;
23129;SDS011;11734;51.046;13.778;2023-05-10T00:26:22;2.20;;;2.10;;
23129;SDS011;11734;51.046;13.778;2023-05-10T00:28:53;2.50;;;2.20;;
23129;SDS011;11734;51.046;13.778;2023-05-10T00:31:20;3.80;;;2.30;;
23129;SDS011;11734;51.046;13.778;2023-05-10T00:33:49;1.93;;;1.83;;
23129;SDS011;11734;51.046;13.778;2023-05-10T00:36:16;2.23;;;2.13;;
23129;SDS011;11734;51.046;13.778;2023-05-10T00:38:43;2.20;;;2.00;;
23129;SDS011;11734;51.046;13.778;2023-05-10T00:41:11;2.13;;;2.00;;
23129;SDS011;11734;51.046;13.778;2023-05-10T00:43:39;2.10;;;1.87;;
23129;SDS011;11734;51.046;13.778;2023-05-10T00:46:06;2.30;;;1.93;;
23129;SDS011;11734;51.046;13.778;2023-05-10T00:48:34;2.63;;;2.30;;
23129;SDS011;11734;51.046;13.778;2023-05-10T00:51:02;2.40;;;2.20;;
23129;SDS011;11734;51.046;13.778;2023-05-10T00:53:34;2.00;;;1.90;;
23129;SDS011;11734;51.046;13.778;2023-05-10T00:56:06;2.57;;;2.37;;
23129;SDS011;11734;51.046;13.778;2023-05-10T00:58:34;2.40;;;2.20;;
23129;SDS011;11734;51.046;13.778;2023-05-10T01:01:03;2.90;;;2.10;;
23129;SDS011;11734;51.046;13.778;2023-05-10T01:03:31;2.83;;;2.30;;
23129;SDS011;11734;51.046;13.778;2023-05-10T01:05:58;1.90;;;1.80;;
23129;SDS011;11734;51.046;13.778;2023-05-10T01:08:25;2.23;;;2.03;;
23129;SDS011;11734;51.046;13.778;2023-05-10T01:11:01;1.90;;;1.80;;
23129;SDS011;11734;51.046;13.778;2023-05-10T01:13:39;2.57;;;2.17;;
23129;SDS011;11734;51.046;13.778;2023-05-10T01:16:07;2.40;;;2.20;;
23129;SDS011;11734;51.046;13.778;2023-05-10T01:18:36;2.37;;;2.17;;
23129;SDS011;11734;51.046;13.778;2023-05-10T01:23:49;2.20;;;2.00;;
23129;SDS011;11734;51.046;13.778;2023-05-10T01:31:27;2.20;;;2.00;;
23129;SDS011;11734;51.046;13.778;2023-05-10T01:34:07;3.40;;;2.10;;
23129;SDS011;11734;51.046;13.778;2023-05-10T01:39:09;2.00;;;1.90;;
23129;SDS011;11734;51.046;13.778;2023-05-10T01:41:49;2.10;;;2.00;;
23129;SDS011;11734;51.046;13.778;2023-05-10T01:44:33;2.60;;;2.20;;
23129;SDS011;11734;51.046;13.778;2023-05-10T01:49:34;2.20;;;2.00;;
23129;SDS011;11734;51.046;13.778;2023-05-10T01:52:06;1.90;;;1.80;;
23129;SDS011;11734;51.046;13.778;2023-05-10T01:54:35;2.10;;;1.90;;
23129;SDS011;11734;51.046;13.778;2023-05-10T01:57:05;2.30;;;1.53;;
23129;SDS011;11734;51.046;13.778;2023-05-10T01:59:35;2.30;;;2.10;;
23129;SDS011;11734;51.046;13.778;2023-05-10T02:02:07;2.30;;;2.07;;
23129;SDS011;11734;51.046;13.778;2023-05-10T02:04:35;2.60;;;2.13;;
23129;SDS011;11734;51.046;13.778;2023-05-10T02:07:04;2.53;;;2.10;;
23129;SDS011;11734;51.046;13.778;2023-05-10T02:09:33;3.20;;;2.07;;
23129;SDS011;11734;51.046;13.778;2023-05-10T02:12:01;2.07;;;1.87;;
23129;SDS011;11734;51.046;13.778;2023-05-10T02:14:32;2.37;;;2.17;;
23129;SDS011;11734;51.046;13.778;2023-05-10T02:17:02;1.83;;;1.60;;
23129;SDS011;11734;51.046;13.778;2023-05-10T02:19:31;2.33;;;2.00;;
23129;SDS011;11734;51.046;13.778;2023-05-10T02:21:59;2.67;;;1.97;;
23129;SDS011;11734;51.046;13.778;2023-05-10T02:24:26;2.13;;;1.93;;
23129;SDS011;11734;51.046;13.778;2023-05-10T02:26:54;2.10;;;2.00;;
23129;SDS011;11734;51.046;13.778;2023-05-10T02:29:23;2.47;;;2.23;;
23129;SDS011;11734;51.046;13.778;2023-05-10T02:31:53;1.93;;;1.80;;
23129;SDS011;11734;51.046;13.778;2023-05-10T02:34:21;2.47;;;2.27;;
23129;SDS011;11734;51.046;13.778;2023-05-10T02:36:49;2.27;;;2.00;;
23129;SDS011;11734;51.046;13.778;2023-05-10T02:39:18;2.13;;;1.93;;
23129;SDS011;11734;51.046;13.778;2023-05-10T02:41:46;2.83;;;2.03;;
23129;SDS011;11734;51.046;13.778;2023-05-10T02:44:20;2.30;;;2.10;;
23129;SDS011;11734;51.046;13.778;2023-05-10T02:46:47;1.97;;;1.80;;
23129;SDS011;11734;51.046;13.778;2023-05-10T02:49:15;2.53;;;2.00;;
23129;SDS011;11734;51.046;13.778;2023-05-10T02:51:44;2.00;;;1.90;;
23129;SDS011;11734;51.046;13.778;2023-05-10T02:54:15;2.57;;;2.10;;
23129;SDS011;11734;51.046;13.778;2023-05-10T02:56:53;1.90;;;1.80;;
23129;SDS011;11734;51.046;13.778;2023-05-10T02:59:21;2.47;;;2.27;;
23129;SDS011;11734;51.046;13.778;2023-05-10T03:01:48;2.23;;;2.10;;
23129;SDS011;11734;51.046;13.778;2023-05-10T03:04:17;2.23;;;2.03;;
23129;SDS011;11734;51.046;13.778;2023-05-10T03:06:44;2.20;;;2.00;;
23129;SDS011;11734;51.046;13.778;2023-05-10T03:09:12;2.30;;;2.10;;
23129;SDS011;11734;51.046;13.778;2023-05-10T03:14:16;2.20;;;2.00;;
23129;SDS011;11734;51.046;13.778;2023-05-10T03:16:52;1.77;;;1.67;;
23129;SDS011;11734;51.046;13.778;2023-05-10T03:20:08;2.00;;;1.90;;
23129;SDS011;11734;51.046;13.778;2023-05-10T03:22:17;2.23;;;2.00;;
23129;SDS011;11734;51.046;13.778;2023-05-10T03:24:46;2.10;;;1.90;;
23129;SDS011;11734;51.046;13.778;2023-05-10T03:27:14;2.37;;;1.90;;
23129;SDS011;11734;51.046;13.778;2023-05-10T03:29:42;2.07;;;1.87;;
23129;SDS011;11734;51.046;13.778;2023-05-10T03:32:11;2.30;;;2.10;;
23129;SDS011;11734;51.046;13.778;2023-05-10T03:34:42;2.00;;;1.90;;
23129;SDS011;11734;51.046;13.778;2023-05-10T03:37:09;2.60;;;2.00;;
23129;SDS011;11734;51.046;13.778;2023-05-10T03:39:37;2.33;;;2.10;;
23129;SDS011;11734;51.046;13.778;2023-05-10T03:42:06;2.23;;;1.97;;
23129;SDS011;11734;51.046;13.778;2023-05-10T03:44:34;1.90;;;1.80;;
23129;SDS011;11734;51.046;13.778;2023-05-10T03:47:01;2.53;;;2.10;;
23129;SDS011;11734;51.046;13.778;2023-05-10T03:49:29;2.23;;;2.13;;
23129;SDS011;11734;51.046;13.778;2023-05-10T03:51:56;2.30;;;2.10;;
23129;SDS011;11734;51.046;13.778;2023-05-10T03:54:25;3.87;;;2.00;;
23129;SDS011;11734;51.046;13.778;2023-05-10T03:56:53;2.13;;;1.93;;
23129;SDS011;11734;51.046;13.778;2023-05-10T03:59:21;2.47;;;2.27;;
23129;SDS011;11734;51.046;13.778;2023-05-10T04:01:51;2.70;;;2.03;;
23129;SDS011;11734;51.046;13.778;2023-05-10T04:04:18;2.40;;;2.20;;
23129;SDS011;11734;51.046;13.778;2023-05-10T04:06:48;2.00;;;1.90;;
23129;SDS011;11734;51.046;13.778;2023-05-10T04:09:16;2.20;;;1.97;;
23129;SDS011;11734;51.046;13.778;2023-05-10T04:11:43;2.43;;;2.03;;
23129;SDS011;11734;51.046;13.778;2023-05-10T04:14:11;2.43;;;2.00;;
23129;SDS011;11734;51.046;13.778;2023-05-10T04:16:38;2.10;;;1.80;;
23129;SDS011;11734;51.046;13.778;2023-05-10T04:19:05;2.23;;;2.03;;
23129;SDS011;11734;51.046;13.778;2023-05-10T04:21:32;2.20;;;2.00;;
23129;SDS011;11734;51.046;13.778;2023-05-10T04:24:00;2.30;;;1.93;;
23129;SDS011;11734;51.046;13.778;2023-05-10T04:26:27;2.03;;;1.93;;
23129;SDS011;11734;51.046;13.778;2023-05-10T04:28:55;2.60;;;2.40;;
23129;SDS011;11734;51.046;13.778;2023-05-10T04:31:22;3.47;;;2.27;;
23129;SDS011;11734;51.046;13.778;2023-05-10T04:33:49;1.93;;;1.83;;
23129;SDS011;11734;51.046;13.778;2023-05-10T04:36:16;1.90;;;1.80;;
23129;SDS011;11734;51.046;13.778;2023-05-10T04:38:44;1.90;;;1.80;;
23129;SDS011;11734;51.046;13.778;2023-05-10T04:41:11;1.87;;;1.77;;
23129;SDS011;11734;51.046;13.778;2023-05-10T04:43:38;2.20;;;2.00;;
23129;SDS011;11734;51.046;13.778;2023-05-10T04:46:05;2.07;;;1.87;;
23129;SDS011;11734;51.046;13.778;2023-05-10T04:48:33;2.70;;;2.30;;
23129;SDS011;11734;51.046;13.778;2023-05-10T04:51:01;3.37;;;2.90;;
23129;SDS011;11734;51.046;13.778;2023-05-10T04:53:30;3.10;;;2.60;;
23129;SDS011;11734;51.046;13.778;2023-05-10T04:55:57;2.40;;;2.20;;
23129;SDS011;11734;51.046;13.778;2023-05-10T04:58:24;2.00;;;1.80;;
23129;SDS011;11734;51.046;13.778;2023-05-10T05:00:52;2.30;;;2.10;;
23129;SDS011;11734;51.046;13.778;2023-05-10T05:03:19;2.07;;;1.87;;
23129;SDS011;11734;51.046;13.778;2023-05-10T05:05:46;3.33;;;1.90;;
23129;SDS011;11734;51.046;13.778;2023-05-10T05:08:14;1.90;;;1.80;;
23129;SDS011;11734;51.046;13.778;2023-05-10T05:10:41;3.10;;;2.20;;
23129;SDS011;11734;51.046;13.778;2023-05-10T05:13:09;1.83;;;1.73;;
23129;SDS011;11734;51.046;13.778;2023-05-10T05:15:36;2.17;;;2.07;;
23129;SDS011;11734;51.046;13.778;2023-05-10T05:18:03;2.33;;;1.80;;
23129;SDS011;11734;51.046;13.778;2023-05-10T05:20:32;2.10;;;1.90;;
23129;SDS011;11734;51.046;13.778;2023-05-10T05:23:00;2.43;;;2.23;;
23129;SDS011;11734;51.046;13.778;2023-05-10T05:25:27;2.13;;;2.03;;
23129;SDS011;11734;51.046;13.778;2023-05-10T05:27:55;2.27;;;1.97;;
23129;SDS011;11734;51.046;13.778;2023-05-10T05:30:22;2.33;;;1.80;;
23129;SDS011;11734;51.046;13.778;2023-05-10T05:32:49;2.30;;;2.10;;
23129;SDS011;11734;51.046;13.778;2023-05-10T05:35:16;2.10;;;1.90;;
23129;SDS011;11734;51.046;13.778;2023-05-10T05:37:44;1.97;;;1.87;;
23129;SDS011;11734;51.046;13.778;2023-05-10T05:40:14;2.37;;;2.17;;
23129;SDS011;11734;51.046;13.778;2023-05-10T05:42:41;2.33;;;2.13;;
23129;SDS011;11734;51.046;13.778;2023-05-10T05:45:09;2.07;;;1.77;;
23129;SDS011;11734;51.046;13.778;2023-05-10T05:47:39;2.30;;;2.07;;
23129;SDS011;11734;51.046;13.778;2023-05-10T05:50:07;1.80;;;1.70;;
23129;SDS011;11734;51.046;13.778;2023-05-10T05:52:34;2.87;;;2.27;;
23129;SDS011;11734;51.046;13.778;2023-05-10T05:55:02;2.40;;;2.20;;
23129;SDS011;11734;51.046;13.778;2023-05-10T05:57:29;1.87;;;1.70;;
23129;SDS011;11734;51.046;13.778;2023-05-10T05:59:57;1.90;;;1.80;;
23129;SDS011;11734;51.046;13.778;2023-05-10T06:02:24;1.53;;;1.43;;
23129;SDS011;11734;51.046;13.778;2023-05-10T06:04:51;2.10;;;1.90;;
23129;SDS011;11734;51.046;13.778;2023-05-10T06:07:19;1.93;;;1.83;;
23129;SDS011;11734;51.046;13.778;2023-05-10T06:09:46;1.80;;;1.70;;
23129;SDS011;11734;51.046;13.778;2023-05-10T06:12:13;2.33;;;2.13;;
23129;SDS011;11734;51.046;13.778;2023-05-10T06:14:40;2.20;;;2.00;;
23129;SDS011;11734;51.046;13.778;2023-05-10T06:17:08;2.77;;;2.00;;
23129;SDS011;11734;51.046;13.778;2023-05-10T06:19:35;2.33;;;2.13;;
23129;SDS011;11734;51.046;13.778;2023-05-10T06:22:03;2.03;;;1.87;;
23129;SDS011;11734;51.046;13.778;2023-05-10T06:24:30;1.93;;;1.83;;
23129;SDS011;11734;51.046;13.778;2023-05-10T06:26:57;2.27;;;2.03;;
23129;SDS011;11734;51.046;13.778;2023-05-10T06:29:26;2.87;;;2.67;;
23129;SDS011;11734;51.046;13.778;2023-05-10T06:31:53;2.57;;;2.30;;
23129;SDS011;11734;51.046;13.778;2023-05-10T06:34:21;1.83;;;1.70;;
23129;SDS011;11734;51.046;13.778;2023-05-10T06:36:48;2.33;;;2.00;;
23129;SDS011;11734;51.046;13.778;2023-05-10T06:39:15;2.47;;;2.27;;
23129;SDS011;11734;51.046;13.778;2023-05-10T06:41:42;2.17;;;1.97;;
23129;SDS011;11734;51.046;13.778;2023-05-10T06:44:10;3.23;;;2.30;;
23129;SDS011;11734;51.046;13.778;2023-05-10T06:46:37;2.30;;;2.10;;
23129;SDS011;11734;51.046;13.778;2023-05-10T06:49:04;2.40;;;2.20;;
23129;SDS011;11734;51.046;13.778;2023-05-10T06:51:31;2.10;;;1.80;;
23129;SDS011;11734;51.046;13.778;2023-05-10T06:53:59;2.63;;;2.23;;
23129;SDS011;11734;51.046;13.778;2023-05-10T06:56:26;2.23;;;2.03;;
23129;SDS011;11734;51.046;13.778;2023-05-10T06:58:53;2.20;;;2.00;;
23129;SDS011;11734;51.046;13.778;2023-05-10T07:01:21;2.20;;;2.00;;
23129;SDS011;11734;51.046;13.778;2023-05-10T07:03:49;2.40;;;2.20;;
23129;SDS011;11734;51.046;13.778;2023-05-10T07:06:16;2.60;;;2.40;;
23129;SDS011;11734;51.046;13.778;2023-05-10T07:08:58;2.40;;;2.20;;
23129;SDS011;11734;51.046;13.778;2023-05-10T07:11:26;2.47;;;2.20;;
23129;SDS011;11734;51.046;13.778;2023-05-10T07:13:53;2.33;;;2.13;;
23129;SDS011;11734;51.046;13.778;2023-05-10T07:16:20;2.23;;;2.07;;
23129;SDS011;11734;51.046;13.778;2023-05-10T07:18:48;3.03;;;2.43;;
23129;SDS011;11734;51.046;13.778;2023-05-10T07:21:16;2.10;;;2.00;;
23129;SDS011;11734;51.046;13.778;2023-05-10T07:23:44;2.53;;;2.33;;
23129;SDS011;11734;51.046;13.778;2023-05-10T07:26:11;2.50;;;2.30;;
23129;SDS011;11734;51.046;13.778;2023-05-10T07:28:38;3.00;;;2.40;;
23129;SDS011;11734;51.046;13.778;2023-05-10T07:31:06;3.50;;;2.47;;
23129;SDS011;11734;51.046;13.778;2023-05-10T07:33:33;2.77;;;2.30;;
23129;SDS011;11734;51.046;13.778;2023-05-10T07:36:00;2.30;;;2.07;;
23129;SDS011;11734;51.046;13.778;2023-05-10T07:38:28;2.17;;;2.07;;
23129;SDS011;11734;51.046;13.778;2023-05-10T07:40:55;2.30;;;2.10;;
23129;SDS011;11734;51.046;13.778;2023-05-10T07:43:22;2.20;;;2.00;;
23129;SDS011;11734;51.046;13.778;2023-05-10T07:45:50;2.60;;;2.40;;
23129;SDS011;11734;51.046;13.778;2023-05-10T07:48:21;2.50;;;2.30;;
23129;SDS011;11734;51.046;13.778;2023-05-10T07:50:48;2.57;;;2.33;;
23129;SDS011;11734;51.046;13.778;2023-05-10T07:53:19;2.90;;;2.10;;
23129;SDS011;11734;51.046;13.778;2023-05-10T07:55:50;3.10;;;2.20;;
23129;SDS011;11734;51.046;13.778;2023-05-10T07:58:17;2.50;;;2.30;;
23129;SDS011;11734;51.046;13.778;2023-05-10T08:00:45;2.37;;;2.17;;
23129;SDS011;11734;51.046;13.778;2023-05-10T08:03:12;2.80;;;2.60;;
23129;SDS011;11734;51.046;13.778;2023-05-10T08:05:40;2.30;;;2.13;;
23129;SDS011;11734;51.046;13.778;2023-05-10T08:08:07;2.60;;;2.40;;
23129;SDS011;11734;51.046;13.778;2023-05-10T08:10:34;2.47;;;2.27;;
23129;SDS011;11734;51.046;13.778;2023-05-10T08:13:01;3.00;;;2.70;;
23129;SDS011;11734;51.046;13.778;2023-05-10T08:15:29;2.43;;;2.20;;
23129;SDS011;11734;51.046;13.778;2023-05-10T08:17:56;2.93;;;2.73;;
23129;SDS011;11734;51.046;13.778;2023-05-10T08:20:25;2.50;;;2.30;;
23129;SDS011;11734;51.046;13.778;2023-05-10T08:22:53;2.23;;;2.03;;
23129;SDS011;11734;51.046;13.778;2023-05-10T08:25:21;2.47;;;1.90;;
23129;SDS011;11734;51.046;13.778;2023-05-10T08:27:48;2.03;;;1.80;;
23129;SDS011;11734;51.046;13.778;2023-05-10T08:30:17;2.70;;;2.20;;
23129;SDS011;11734;51.046;13.778;2023-05-10T08:32:44;2.80;;;2.60;;
23129;SDS011;11734;51.046;13.778;2023-05-10T08:35:12;3.03;;;2.47;;
23129;SDS011;11734;51.046;13.778;2023-05-10T08:37:39;2.60;;;2.30;;
23129;SDS011;11734;51.046;13.778;2023-05-10T08:40:06;2.50;;;2.30;;
23129;SDS011;11734;51.046;13.778;2023-05-10T08:42:38;2.90;;;2.63;;
23129;SDS011;11734;51.046;13.778;2023-05-10T08:45:10;2.37;;;2.17;;
23129;SDS011;11734;51.046;13.778;2023-05-10T08:47:37;2.53;;;2.33;;
23129;SDS011;11734;51.046;13.778;2023-05-10T08:50:06;2.37;;;2.17;;
23129;SDS011;11734;51.046;13.778;2023-05-10T08:52:33;2.20;;;2.00;;
23129;SDS011;11734;51.046;13.778;2023-05-10T08:55:05;2.30;;;2.10;;
23129;SDS011;11734;51.046;13.778;2023-05-10T08:57:32;2.57;;;2.30;;
23129;SDS011;11734;51.046;13.778;2023-05-10T09:00:00;2.40;;;2.20;;
23129;SDS011;11734;51.046;13.778;2023-05-10T09:02:28;2.80;;;2.50;;
23129;SDS011;11734;51.046;13.778;2023-05-10T09:04:56;3.10;;;2.47;;
23129;SDS011;11734;51.046;13.778;2023-05-10T09:07:23;2.33;;;2.13;;
23129;SDS011;11734;51.046;13.778;2023-05-10T09:09:50;2.43;;;2.10;;
23129;SDS011;11734;51.046;13.778;2023-05-10T09:12:18;2.30;;;2.10;;
23129;SDS011;11734;51.046;13.778;2023-05-10T09:14:45;2.80;;;2.60;;
23129;SDS011;11734;51.046;13.778;2023-05-10T09:17:13;2.83;;;2.47;;
23129;SDS011;11734;51.046;13.778;2023-05-10T09:19:40;2.77;;;2.57;;
23129;SDS011;11734;51.046;13.778;2023-05-10T09:22:07;2.77;;;2.47;;
23129;SDS011;11734;51.046;13.778;2023-05-10T09:24:35;2.87;;;2.40;;
23129;SDS011;11734;51.046;13.778;2023-05-10T09:27:08;2.37;;;2.17;;
23129;SDS011;11734;51.046;13.778;2023-05-10T09:29:39;2.60;;;2.40;;
23129;SDS011;11734;51.046;13.778;2023-05-10T09:32:07;2.50;;;2.30;;
23129;SDS011;11734;51.046;13.778;2023-05-10T09:34:34;2.70;;;2.50;;
23129;SDS011;11734;51.046;13.778;2023-05-10T09:37:06;2.27;;;2.17;;
23129;SDS011;11734;51.046;13.778;2023-05-10T09:39:37;3.10;;;2.30;;
23129;SDS011;11734;51.046;13.778;2023-05-10T09:42:08;2.50;;;2.30;;
23129;SDS011;11734;51.046;13.778;2023-05-10T09:44:35;2.30;;;2.10;;
23129;SDS011;11734;51.046;13.778;2023-05-10T09:47:05;2.77;;;2.57;;
23129;SDS011;11734;51.046;13.778;2023-05-10T09:49:32;2.77;;;2.40;;
23129;SDS011;11734;51.046;13.778;2023-05-10T09:52:00;2.50;;;2.30;;
23129;SDS011;11734;51.046;13.778;2023-05-10T09:54:30;2.83;;;2.37;;
23129;SDS011;11734;51.046;13.778;2023-05-10T09:56:57;2.80;;;2.60;;
23129;SDS011;11734;51.046;13.778;2023-05-10T09:59:26;2.80;;;2.60;;
23129;SDS011;11734;51.046;13.778;2023-05-10T10:01:57;3.17;;;2.37;;
23129;SDS011;11734;51.046;13.778;2023-05-10T10:04:25;2.67;;;2.47;;
23129;SDS011;11734;51.046;13.778;2023-05-10T10:06:59;2.87;;;2.60;;
23129;SDS011;11734;51.046;13.778;2023-05-10T10:09:26;2.90;;;2.30;;
23129;SDS011;11734;51.046;13.778;2023-05-10T10:11:54;4.13;;;2.80;;
23129;SDS011;11734;51.046;13.778;2023-05-10T10:14:22;2.60;;;2.40;;
23129;SDS011;11734;51.046;13.778;2023-05-10T10:16:50;3.67;;;2.60;;
23129;SDS011;11734;51.046;13.778;2023-05-10T10:19:35;2.80;;;2.20;;
23129;SDS011;11734;51.046;13.778;2023-05-10T10:22:03;2.07;;;1.90;;
23129;SDS011;11734;51.046;13.778;2023-05-10T10:24:31;2.37;;;2.20;;
23129;SDS011;11734;51.046;13.778;2023-05-10T10:30:03;2.90;;;2.57;;
23129;SDS011;11734;51.046;13.778;2023-05-10T10:35:18;2.70;;;2.50;;
23129;SDS011;11734;51.046;13.778;2023-05-10T10:37:46;3.00;;;2.70;;
23129;SDS011;11734;51.046;13.778;2023-05-10T10:40:23;2.80;;;2.60;;
23129;SDS011;11734;51.046;13.778;2023-05-10T10:42:52;3.10;;;2.47;;
23129;SDS011;11734;51.046;13.778;2023-05-10T10:45:20;2.60;;;2.37;;
23129;SDS011;11734;51.046;13.778;2023-05-10T10:47:48;2.53;;;2.33;;
23129;SDS011;11734;51.046;13.778;2023-05-10T10:50:16;3.73;;;2.83;;
23129;SDS011;11734;51.046;13.778;2023-05-10T10:52:43;2.40;;;2.20;;
23129;SDS011;11734;51.046;13.778;2023-05-10T10:57:52;3.87;;;2.23;;
23129;SDS011;11734;51.046;13.778;2023-05-10T11:07:55;2.50;;;2.30;;
23129;SDS011;11734;51.046;13.778;2023-05-10T11:10:22;3.00;;;2.80;;
23129;SDS011;11734;51.046;13.778;2023-05-10T11:15:20;2.70;;;2.43;;
23129;SDS011;11734;51.046;13.778;2023-05-10T11:17:55;2.77;;;2.53;;
23129;SDS011;11734;51.046;13.778;2023-05-10T11:20:23;2.63;;;2.43;;
23129;SDS011;11734;51.046;13.778;2023-05-10T11:22:55;2.67;;;2.47;;
23129;SDS011;11734;51.046;13.778;2023-05-10T11:25:28;3.40;;;2.60;;
23129;SDS011;11734;51.046;13.778;2023-05-10T11:27:55;3.10;;;2.80;;
23129;SDS011;11734;51.046;13.778;2023-05-10T11:30:23;2.60;;;2.40;;
23129;SDS011;11734;51.046;13.778;2023-05-10T11:32:50;2.57;;;2.37;;
23129;SDS011;11734;51.046;13.778;2023-05-10T11:35:17;4.53;;;2.70;;
23129;SDS011;11734;51.046;13.778;2023-05-10T11:37:47;2.97;;;2.57;;
23129;SDS011;11734;51.046;13.778;2023-05-10T11:40:15;3.00;;;2.63;;
23129;SDS011;11734;51.046;13.778;2023-05-10T11:42:42;2.77;;;2.30;;
23129;SDS011;11734;51.046;13.778;2023-05-10T11:45:10;4.03;;;2.43;;
23129;SDS011;11734;51.046;13.778;2023-05-10T11:47:37;2.93;;;2.47;;
23129;SDS011;11734;51.046;13.778;2023-05-10T11:50:08;2.70;;;2.50;;
23129;SDS011;11734;51.046;13.778;2023-05-10T11:52:35;2.53;;;2.30;;
23129;SDS011;11734;51.046;13.778;2023-05-10T11:55:03;2.90;;;2.70;;
23129;SDS011;11734;51.046;13.778;2023-05-10T11:57:31;2.77;;;2.53;;
23129;SDS011;11734;51.046;13.778;2023-05-10T11:59:59;2.60;;;2.40;;
23129;SDS011;11734;51.046;13.778;2023-05-10T12:02:26;2.83;;;2.53;;
23129;SDS011;11734;51.046;13.778;2023-05-10T12:04:54;2.13;;;1.93;;
23129;SDS011;11734;51.046;13.778;2023-05-10T12:07:22;4.07;;;2.80;;
23129;SDS011;11734;51.046;13.778;2023-05-10T12:12:39;3.00;;;2.80;;
23129;SDS011;11734;51.046;13.778;2023-05-10T12:15:12;3.03;;;2.73;;
23129;SDS011;11734;51.046;13.778;2023-05-10T12:17:44;2.73;;;2.53;;
23129;SDS011;11734;51.046;13.778;2023-05-10T12:20:15;2.73;;;2.53;;
23129;SDS011;11734;51.046;13.778;2023-05-10T12:22:47;3.40;;;2.50;;
23129;SDS011;11734;51.046;13.778;2023-05-10T12:25:14;3.47;;;2.87;;
23129;SDS011;11734;51.046;13.778;2023-05-10T12:27:52;3.87;;;2.90;;
23129;SDS011;11734;51.046;13.778;2023-05-10T12:30:29;3.33;;;2.97;;
23129;SDS011;11734;51.046;13.778;2023-05-10T12:35:38;3.17;;;2.43;;
23129;SDS011;11734;51.046;13.778;2023-05-10T12:38:26;5.40;;;2.80;;
23129;SDS011;11734;51.046;13.778;2023-05-10T12:40:59;3.33;;;2.93;;
23129;SDS011;11734;51.046;13.778;2023-05-10T12:43:26;3.10;;;2.77;;
23129;SDS011;11734;51.046;13.778;2023-05-10T12:45:54;3.63;;;3.13;;
23129;SDS011;11734;51.046;13.778;2023-05-10T12:48:21;3.80;;;2.90;;
23129;SDS011;11734;51.046;13.778;2023-05-10T12:50:48;3.80;;;2.70;;
23129;SDS011;11734;51.046;13.778;2023-05-10T12:53:16;3.23;;;2.60;;
23129;SDS011;11734;51.046;13.778;2023-05-10T12:55:43;2.80;;;2.57;;
23129;SDS011;11734;51.046;13.778;2023-05-10T12:58:11;2.60;;;2.40;;
23129;SDS011;11734;51.046;13.778;2023-05-10T13:00:52;2.83;;;2.63;;
23129;SDS011;11734;51.046;13.778;2023-05-10T13:03:20;4.37;;;2.53;;
23129;SDS011;11734;51.046;13.778;2023-05-10T13:05:47;3.17;;;2.87;;
23129;SDS011;11734;51.046;13.778;2023-05-10T13:08:15;3.50;;;2.73;;
23129;SDS011;11734;51.046;13.778;2023-05-10T13:10:42;3.43;;;2.83;;
23129;SDS011;11734;51.046;13.778;2023-05-10T13:13:09;4.17;;;3.17;;
23129;SDS011;11734;51.046;13.778;2023-05-10T13:15:36;2.57;;;2.37;;
23129;SDS011;11734;51.046;13.778;2023-05-10T13:18:04;3.20;;;2.53;;
23129;SDS011;11734;51.046;13.778;2023-05-10T13:20:31;3.30;;;2.57;;
23129;SDS011;11734;51.046;13.778;2023-05-10T13:22:58;2.63;;;2.20;;
23129;SDS011;11734;51.046;13.778;2023-05-10T13:25:26;3.07;;;2.63;;
23129;SDS011;11734;51.046;13.778;2023-05-10T13:27:53;2.63;;;2.40;;
23129;SDS011;11734;51.046;13.778;2023-05-10T13:30:20;2.90;;;2.60;;
23129;SDS011;11734;51.046;13.778;2023-05-10T13:32:47;3.27;;;2.97;;
23129;SDS011;11734;51.046;13.778;2023-05-10T13:35:15;2.60;;;2.40;;
23129;SDS011;11734;51.046;13.778;2023-05-10T13:37:42;2.90;;;2.70;;
23129;SDS011;11734;51.046;13.778;2023-05-10T13:40:09;3.30;;;2.20;;
23129;SDS011;11734;51.046;13.778;2023-05-10T13:42:37;2.87;;;2.47;;
23129;SDS011;11734;51.046;13.778;2023-05-10T13:45:04;2.17;;;1.97;;
23129;SDS011;11734;51.046;13.778;2023-05-10T13:47:32;3.03;;;2.60;;
23129;SDS011;11734;51.046;13.778;2023-05-10T13:49:59;2.67;;;2.47;;
23129;SDS011;11734;51.046;13.778;2023-05-10T13:52:27;2.60;;;2.40;;
23129;SDS011;11734;51.046;13.778;2023-05-10T13:54:54;2.70;;;2.30;;
23129;SDS011;11734;51.046;13.778;2023-05-10T13:57:22;2.83;;;2.30;;
23129;SDS011;11734;51.046;13.778;2023-05-10T13:59:50;2.77;;;2.50;;
23129;SDS011;11734;51.046;13.778;2023-05-10T14:02:17;2.60;;;2.40;;
23129;SDS011;11734;51.046;13.778;2023-05-10T14:04:44;2.50;;;2.30;;
23129;SDS011;11734;51.046;13.778;2023-05-10T14:07:12;2.73;;;2.40;;
23129;SDS011;11734;51.046;13.778;2023-05-10T14:09:39;3.00;;;2.70;;
23129;SDS011;11734;51.046;13.778;2023-05-10T14:12:06;2.53;;;2.30;;
23129;SDS011;11734;51.046;13.778;2023-05-10T14:14:34;2.97;;;2.77;;
23129;SDS011;11734;51.046;13.778;2023-05-10T14:17:01;2.43;;;2.23;;
23129;SDS011;11734;51.046;13.778;2023-05-10T14:19:29;2.53;;;2.33;;
23129;SDS011;11734;51.046;13.778;2023-05-10T14:21:58;2.50;;;2.30;;
23129;SDS011;11734;51.046;13.778;2023-05-10T14:24:25;2.87;;;2.67;;
23129;SDS011;11734;51.046;13.778;2023-05-10T14:26:53;2.83;;;2.53;;
23129;SDS011;11734;51.046;13.778;2023-05-10T14:29:20;2.57;;;2.37;;
23129;SDS011;11734;51.046;13.778;2023-05-10T14:31:48;2.30;;;2.10;;
23129;SDS011;11734;51.046;13.778;2023-05-10T14:34:16;2.40;;;2.20;;
23129;SDS011;11734;51.046;13.778;2023-05-10T14:36:43;3.03;;;2.30;;
23129;SDS011;11734;51.046;13.778;2023-05-10T14:39:10;2.50;;;2.30;;
23129;SDS011;11734;51.046;13.778;2023-05-10T14:41:39;2.40;;;2.20;;
23129;SDS011;11734;51.046;13.778;2023-05-10T14:44:11;2.40;;;2.20;;
23129;SDS011;11734;51.046;13.778;2023-05-10T14:46:39;2.77;;;2.57;;
23129;SDS011;11734;51.046;13.778;2023-05-10T14:49:06;2.67;;;2.47;;
23129;SDS011;11734;51.046;13.778;2023-05-10T14:51:33;2.67;;;2.47;;
23129;SDS011;11734;51.046;13.778;2023-05-10T14:54:02;2.93;;;2.60;;
23129;SDS011;11734;51.046;13.778;2023-05-10T14:56:30;2.73;;;2.37;;
23129;SDS011;11734;51.046;13.778;2023-05-10T14:58:57;2.63;;;2.43;;
23129;SDS011;11734;51.046;13.778;2023-05-10T15:01:25;2.63;;;2.43;;
23129;SDS011;11734;51.046;13.778;2023-05-10T15:03:53;2.87;;;2.40;;
23129;SDS011;11734;51.046;13.778;2023-05-10T15:06:29;2.47;;;2.27;;
23129;SDS011;11734;51.046;13.778;2023-05-10T15:08:57;2.80;;;2.60;;
23129;SDS011;11734;51.046;13.778;2023-05-10T15:11:24;2.40;;;2.20;;
23129;SDS011;11734;51.046;13.778;2023-05-10T15:13:52;2.60;;;2.40;;
23129;SDS011;11734;51.046;13.778;2023-05-10T15:16:19;2.67;;;2.47;;
23129;SDS011;11734;51.046;13.778;2023-05-10T15:18:46;3.13;;;2.53;;
23129;SDS011;11734;51.046;13.778;2023-05-10T15:21:14;2.87;;;2.67;;